Tiempo atmosférico en la estación meteorológica de Málaga, Málaga (25 m.)



Fecha
DESCASC
Temp. máxima en grados centígrados (hora)
DESCASC
Temp. mínima en grados centígrados (hora)
DESCASC
Temp. media en grados centígrados
DESCASC
Racha de viento máxima en m/sg (hora)
DESCASC
Velocidad máxima media en intervalos de 10 minutos(hora)
DESCASC
Precipitaciones diarias en mm
DESCASC
Precipitaciones de 00:00 a 06:00 en mm
DESCASC
Precipitaciones de 06:00 a 12:00 en mm
DESCASC
Precipitaciones de 12:00 a 18:00 en mm
DESCASC
Precipitaciones de 18:00 a 24:00 en mm
DESCASC
23-06-2019 24.1 (18:00) 20.1 (03:40) 22.1 5 (17:00) 3.61 (17:20) 0 0 0 0 0
22-06-2019 24.2 (10:30) 18.8 (04:20) 21.5 6.11 (00:40) 3.61 (00:40) 0 0 0 0 0
21-06-2019 29.6 (12:00) 19.6 (23:59) 24.6 9.72 (05:20) 6.39 (19:00) 0 0 0 0 0
20-06-2019 31.1 (20:00) 21.8 (00:00) 26.4 13.33 (16:20) 8.89 (16:20) 0 0 0 0 0
19-06-2019 -- (--) -- (--) -- -- (--) -- (--) -- -- -- -- 0
18-06-2019 -- (--) -- (--) -- -- (--) -- (--) -- 0 0 0 --
17-06-2019 22.1 (09:10) 18.1 (00:00) 20.1 4.72 (14:30) 3.33 (15:10) 0 0 0 0 0
16-06-2019 23.7 (10:20) 16.6 (00:00) 20.2 4.44 (10:00) 3.33 (17:00) 0 0 0 0 0
15-06-2019 28.6 (13:40) 18.2 (00:00) 23.4 12.22 (15:00) 8.33 (15:00) 0 0 0 0 0
14-06-2019 23.9 (22:10) 19 (00:00) 21.4 14.17 (13:40) 9.44 (13:20) 0 0 0 0 0
13-06-2019 24.4 (11:30) 18.4 (00:00) 21.4 4.44 (15:40) 3.06 (14:40) 0 0 0 0 0
12-06-2019 25.7 (00:00) 17.8 (00:00) 21.8 18.06 (01:50) 7.78 (02:20) 0 0 0 0 0
11-06-2019 30.3 (18:00) 20.7 (00:00) 25.5 12.78 (14:10) 7.22 (17:10) 0 0 0 0 0
10-06-2019 30.5 (18:30) 20.9 (00:00) 25.7 11.67 (13:50) 6.11 (17:10) 0 0 0 0 0
09-06-2019 29.3 (20:40) 19.8 (00:00) 24.5 10 (19:10) 7.22 (19:10) 0 0 0 0 0
08-06-2019 25.4 (00:00) 18.4 (00:00) 21.9 11.39 (03:50) 6.94 (03:50) 0 0 0 0 0
07-06-2019 27.1 (15:30) 19.4 (00:00) 23.3 13.89 (16:50) 10.28 (16:40) 0 0 0 0 0
06-06-2019 24.5 (11:30) 19.3 (00:00) 21.9 8.33 (03:50) 5.28 (18:50) 0 0 0 0 0
05-06-2019 26.9 (20:30) 19.3 (00:00) 23.1 14.44 (13:00) 7.22 (11:50) 0 0 0 0 0
04-06-2019 25.3 (18:30) 18 (00:00) 21.6 9.44 (20:50) 6.67 (20:50) 0 0 0 0 0
03-06-2019 23.7 (09:00) 18.6 (00:00) 21.2 5.28 (05:20) 3.33 (14:00) 0 0 0 0 0
02-06-2019 24.8 (10:20) 17.6 (00:00) 21.2 5.83 (13:20) 4.72 (14:40) 0 0 0 0 0
01-06-2019 24.2 (13:50) 17 (00:00) 20.6 6.67 (12:00) 5 (12:00) 0 0 0 0 0
31-05-2019 23 (09:40) 16.6 (00:00) 19.8 6.94 (15:20) 4.72 (15:00) 0 0 0 0 0
30-05-2019 22.3 (14:40) 17.5 (00:00) 19.9 8.06 (21:20) 5.28 (17:40) 0 0 0 0 0
29-05-2019 23.6 (09:30) 19.4 (00:00) 21.5 9.44 (20:30) 5 (21:00) 0 0 0 0 0
28-05-2019 22.7 (09:30) 18.5 (00:00) 20.6 5.56 (15:30) 3.89 (15:30) 0 0 0 0 0
27-05-2019 24.6 (16:00) 17.5 (00:00) 21.1 5.28 (17:00) 3.61 (15:50) 0 0 0 0 0
26-05-2019 22.7 (16:40) 16.6 (00:00) 19.7 5.28 (06:30) 3.33 (07:00) 0 0 0 0 0

Gráficas

Temp. máximas Temp. mínimas Temp. medias Precipitaciones Rachas de viento máximas Velocidades máximas media en intervalos de 10 minutos

Datos horarios

Fecha y hora oficial Temperatura (ºC) Velocidad del viento (km/h) Dirección del viento Racha (km/h) Dirección de racha Precipitación (mm) Presión (hPa) Tendencia (hPa) Humedad (%)
2019-06-24 23:00:00 20.2 10 Sudeste 18 Sudeste 0 -- -- 88
2019-06-24 22:00:00 20.6 12 Sudeste 17 Sudeste 0 -- -- 84
2019-06-24 21:00:00 21.6 6 Sudeste 13 Sudeste 0 -- -- 79
2019-06-24 20:00:00 21.9 9 Sudeste 13 Sudeste 0 -- -- 77
2019-06-24 19:00:00 22.5 9 Sudeste 13 Sudeste 0 -- -- 73
2019-06-24 18:00:00 22.5 11 Sudeste 15 Sudeste 0 -- -- 72
2019-06-24 17:00:00 22 10 Sudeste 15 Sudeste 0 -- -- 76
2019-06-24 16:00:00 21.9 9 Sur 15 Sur 0 -- -- 79
2019-06-24 15:00:00 21.5 9 Sur 17 Sur 0 -- -- 79
2019-06-24 14:00:00 21.1 10 Sur 14 Sur 0 -- -- 81
2019-06-24 13:00:00 21.8 9 Sur 13 Sudoeste 0 -- -- 78
2019-06-24 12:00:00 21.5 8 Sur 12 Sur 0 -- -- 76
2019-06-24 11:00:00 22 8 Sur 13 Sur 0 -- -- 69
2019-06-24 10:00:00 23.3 5 Sur 9 Sur 0 -- -- 61
2019-06-24 09:00:00 24.2 0 Calma 5 Sudeste 0 -- -- 54
2019-06-24 08:00:00 21.2 3 Sudeste 9 Sudeste 0 -- -- 65
2019-06-24 07:00:00 20.8 3 Norte 10 Nordeste 0 -- -- 61
2019-06-24 06:00:00 20.7 0 Calma 7 Este 0 -- -- 65
2019-06-24 05:00:00 20.6 4 Este 9 Nordeste 0 -- -- 62
2019-06-24 04:00:00 20.3 3 Nordeste 6 Norte 0 -- -- 70
2019-06-24 03:00:00 20.7 3 Sudeste 5 Sudeste 0 -- -- 80
2019-06-24 02:00:00 20.7 3 Sur 6 Sudeste 0 -- -- 80
2019-06-24 01:00:00 21.1 4 Sudoeste 5 Sudoeste 0 -- -- 77
2019-06-24 00:00:00 21.2 0 Calma 6 Sur 0 -- -- 77
2019-06-23 23:00:00 21.6 5 Sudoeste 7 Sudoeste 0 -- -- 74
2019-06-23 22:00:00 21.6 3 Sudoeste 8 Sur 0 -- -- 75
2019-06-23 21:00:00 22.3 5 Sur 9 Sur 0 -- -- 74
2019-06-23 20:00:00 23.3 5 Sudoeste 11 Sudoeste 0 -- -- 69
2019-06-23 19:00:00 23.4 6 Sur 13 Sur 0 -- -- 68
2019-06-23 18:00:00 24.1 8 Sudoeste 17 Sudoeste 0 -- -- 64
2019-06-23 17:00:00 23.9 12 Oeste 18 Oeste 0 -- -- 65
2019-06-23 16:00:00 23.4 7 Sudoeste 11 Sudoeste 0 -- -- 69
2019-06-23 15:00:00 23 7 Sur 13 Sur 0 -- -- 71
2019-06-23 14:00:00 22.5 5 Sur 10 Sur 0 -- -- 76
2019-06-23 13:00:00 21.6 5 Sur 9 Sur 0 -- -- 78
2019-06-23 12:00:00 22.1 5 Sudoeste 9 Sudoeste 0 -- -- 76
2019-06-23 11:00:00 21.5 6 Sur 9 Sudoeste 0 -- -- 78
2019-06-23 10:00:00 22.7 5 Sudoeste 6 Sur 0 -- -- 71
2019-06-23 09:00:00 22.5 4 Sur 7 Oeste 0 -- -- 70
2019-06-23 08:00:00 21.2 4 Sudoeste 13 Nordeste 0 -- -- 74
2019-06-23 07:00:00 20.4 8 Norte 14 Norte 0 -- -- 75
2019-06-23 06:00:00 20.5 5 Norte 9 Nordeste 0 -- -- 77
2019-06-23 05:00:00 20.2 0 Calma 5 Este 0 -- -- 83
2019-06-23 04:00:00 20.3 3 Sur 9 Sudeste 0 -- -- 83
2019-06-23 03:00:00 20.3 4 Sur 6 Sur 0 -- -- 84
2019-06-23 02:00:00 20.6 3 Sur 5 Sur 0 -- -- 85
2019-06-23 01:00:00 20.9 3 Sur 5 Sur 0 -- -- 83
2019-06-23 00:00:00 20.8 3 Sudoeste 5 Sudoeste 0 -- -- 84
2019-06-22 23:00:00 20.7 3 Sudeste 5 Este 0 -- -- 86
2019-06-22 22:00:00 21 5 Sudoeste 10 Sudoeste 0 -- -- 86
2019-06-22 21:00:00 22 5 Sudoeste 12 Sudoeste 0 -- -- 81
2019-06-22 20:00:00 22.1 8 Sur 13 Sur 0 -- -- 82
2019-06-22 19:00:00 22.7 8 Sur 12 Sur 0 -- -- 78
2019-06-22 18:00:00 23 8 Sur 12 Sudoeste 0 -- -- 76
2019-06-22 17:00:00 23.1 6 Sudoeste 11 Este 0 -- -- 75
2019-06-22 16:00:00 22.7 7 Sudoeste 14 Sudoeste 0 -- -- 77
2019-06-22 15:00:00 22.4 9 Sudoeste 15 Sudoeste 0 -- -- 77
2019-06-22 14:00:00 21.8 11 Sudoeste 15 Sudoeste 0 -- -- 78
2019-06-22 13:00:00 21.6 7 Sudoeste 13 Sudoeste 0 -- -- 79
2019-06-22 12:00:00 20.9 9 Sur 14 Sur 0 -- -- 81
2019-06-22 11:00:00 22.4 6 Sur 14 Sudeste 0 -- -- 70
2019-06-22 10:00:00 23.6 5 Sudoeste 12 Oeste 0 -- -- 65
2019-06-22 09:00:00 22.6 3 Sudoeste 6 Sudoeste 0 -- -- 68
2019-06-22 08:00:00 20 4 Nordeste 8 Este 0 -- -- 75
2019-06-22 07:00:00 19.5 6 Sudeste 9 Sudeste 0 -- -- 83
2019-06-22 06:00:00 19.4 8 Sudeste 22 Sudeste 0 -- -- 83
2019-06-22 05:00:00 19.4 0 Calma 8 Norte 0 -- -- 74
2019-06-22 04:00:00 19.1 2 Sudoeste 4 Sur 0 -- -- 84
2019-06-22 03:00:00 19.1 3 Sur 10 Sudeste 0 -- -- 83
2019-06-22 02:00:00 19.1 6 Sudeste 16 Sudeste 0 -- -- 83
2019-06-22 01:00:00 19.2 8 Sur 22 Sur 0 -- -- 82
2019-06-22 00:00:00 19.6 8 Sudeste 21 Sudeste 0 -- -- 81
2019-06-21 23:00:00 19.8 13 Sudeste 18 Sudeste 0 -- -- 78
2019-06-21 22:00:00 20.5 8 Sudeste 22 Sudeste 0 -- -- 71
2019-06-21 21:00:00 21.6 14 Sudeste 26 Sudeste 0 -- -- 64
2019-06-21 20:00:00 22.6 18 Sudeste 28 Sudeste 0 -- -- 59
2019-06-21 19:00:00 21.8 23 Sudeste 30 Sudeste 0 -- -- 64
2019-06-21 18:00:00 22 17 Sudeste 26 Sudeste 0 -- -- 63
2019-06-21 17:00:00 23.1 18 Sudeste 29 Sudeste 0 -- -- 57
2019-06-21 16:00:00 23.3 19 Sudeste 28 Este 0 -- -- 56
2019-06-21 15:00:00 23.6 14 Sudeste 28 Sudeste 0 -- -- 54
2019-06-21 14:00:00 24.1 10 Sur 27 Sudoeste 0 -- -- 52
2019-06-21 13:00:00 24.6 14 Sur 32 Sudeste 0 -- -- 50
2019-06-21 12:00:00 29.6 10 Noroeste 29 Norte 0 -- -- 34
2019-06-21 11:00:00 28.4 11 Noroeste 31 Noroeste 0 -- -- 37
2019-06-21 10:00:00 26.5 10 Noroeste 28 Noroeste 0 -- -- 42
2019-06-21 09:00:00 24.4 11 Noroeste 28 Noroeste 0 -- -- 47
2019-06-21 08:00:00 22.9 13 Noroeste 34 Noroeste 0 -- -- 50
2019-06-21 07:00:00 22.5 20 Noroeste 32 Norte 0 -- -- 51
2019-06-21 06:00:00 22.9 14 Noroeste 35 Noroeste 0 -- -- 49
2019-06-21 05:00:00 23.4 18 Norte 31 Norte 0 -- -- 47
2019-06-21 04:00:00 23.8 15 Norte 31 Norte 0 -- -- 45
2019-06-21 03:00:00 24.6 14 Norte 30 Noroeste 0 -- -- 43
2019-06-21 02:00:00 25.3 15 Norte 31 Noroeste 0 -- -- 42
2019-06-21 01:00:00 25.4 14 Noroeste 27 Noroeste 0 -- -- 44
2019-06-21 00:00:00 26.5 12 Noroeste 28 Norte 0 -- -- 39
2019-06-20 23:00:00 27 14 Norte 39 Nordeste 0 -- -- 38
2019-06-20 22:00:00 28 15 Norte 34 Norte 0 -- -- 35
2019-06-20 21:00:00 29.8 16 Norte 30 Noroeste 0 -- -- 32
2019-06-20 20:00:00 31.1 14 Norte 36 Oeste 0 -- -- 31
2019-06-20 19:00:00 24.7 24 Oeste 40 Oeste 0 -- -- 51
2019-06-20 18:00:00 23.5 26 Oeste 38 Oeste 0 -- -- 58
2019-06-20 17:00:00 24.5 26 Oeste 48 Oeste 0 -- -- 54
2019-06-20 16:00:00 25.4 26 Oeste 42 Oeste 0 -- -- 50
2019-06-20 15:00:00 28.5 18 Oeste 31 Oeste 0 -- -- 39
2019-06-20 14:00:00 30.2 16 Noroeste 31 Noroeste 0 -- -- 34
2019-06-20 13:00:00 29 16 Noroeste 33 Noroeste 0 -- -- 38
2019-06-20 12:00:00 28.1 13 Noroeste 30 Noroeste 0 -- -- 41
2019-06-20 11:00:00 26.8 13 Norte 38 Noroeste 0 -- -- 46
2019-06-20 10:00:00 25.6 16 Norte 38 Noroeste 0 -- -- 49
2019-06-20 09:00:00 24.5 17 Norte 35 Norte 0 -- -- 52
2019-06-20 08:00:00 22.8 13 Noroeste 27 Noroeste 0 -- -- 56
2019-06-20 07:00:00 21.8 15 Noroeste 27 Noroeste 0 -- -- 57
2019-06-20 06:00:00 22.6 14 Noroeste 30 Noroeste 0 -- -- 55
2019-06-20 05:00:00 23.7 13 Noroeste 32 Noroeste 0 -- -- 51
2019-06-20 04:00:00 23.9 13 Norte 26 Noroeste 0 -- -- 51
2019-06-20 03:00:00 24.8 13 Noroeste 27 Noroeste 0 -- -- 48
2019-06-20 02:00:00 25.8 13 Norte 30 Noroeste 0 -- -- 45
2019-06-20 01:00:00 26.5 9 Noroeste 22 Noroeste 0 -- -- 44
2019-06-20 00:00:00 27.6 9 Norte 24 Nordeste 0 -- -- 40
2019-06-19 23:00:00 28.8 14 Norte 31 Norte 0 -- -- 35
2019-06-19 22:00:00 30.1 15 Norte 31 Norte 0 -- -- 31
2019-06-19 21:00:00 31.8 16 Norte 29 Norte 0 -- -- 28
2019-06-19 20:00:00 27.9 5 Sur 17 Este 0 -- -- 45
2019-06-19 19:00:00 26.1 13 Sur 37 Oeste 0 -- -- 53
2019-06-19 18:00:00 24.1 28 Oeste 45 Oeste 0 -- -- 60
2019-06-19 17:00:00 25.8 29 Oeste 40 Oeste 0 -- -- 49
2019-06-19 16:00:00 24.1 29 Oeste 41 Oeste 0 -- -- 58
2019-06-19 15:00:00 24.4 23 Oeste -- -- -- -- -- 55
2019-06-19 14:00:00 -- -- -- -- -- -- -- -- --
2019-06-19 13:00:00 -- -- -- -- -- -- -- -- --
2019-06-19 12:00:00 -- -- -- -- -- -- -- -- --
2019-06-19 11:00:00 -- -- -- -- -- -- -- -- --
2019-06-19 10:00:00 -- -- -- -- -- -- -- -- --
2019-06-19 09:00:00 -- -- -- -- -- -- -- -- --
2019-06-19 08:00:00 -- -- -- -- -- -- -- -- --
2019-06-19 07:00:00 -- -- -- -- -- -- -- -- --
2019-06-19 06:00:00 -- -- -- -- -- -- -- -- --
2019-06-19 05:00:00 -- -- -- -- -- -- -- -- --
2019-06-19 04:00:00 -- -- -- -- -- -- -- -- --
2019-06-19 03:00:00 -- -- -- -- -- -- -- -- --
2019-06-19 02:00:00 -- -- -- -- -- -- -- -- --
2019-06-19 01:00:00 -- -- -- -- -- -- -- -- --
2019-06-19 00:00:00 -- -- -- -- -- -- -- -- --
2019-06-18 23:00:00 -- -- -- -- -- -- -- -- --
2019-06-18 22:00:00 -- -- -- -- -- -- -- -- --
2019-06-18 21:00:00 -- -- -- -- -- -- -- -- --
2019-06-18 20:00:00 -- -- -- -- -- -- -- -- --
2019-06-18 19:00:00 23.4 12 Sudeste 21 Sudeste 0 -- -- 58
2019-06-18 18:00:00 22.5 11 Sudeste 18 Sudeste 0 -- -- 64
2019-06-18 17:00:00 22.1 11 Sudeste 16 Sudeste 0 -- -- 66
2019-06-18 16:00:00 21.7 13 Sudeste 18 Sur 0 -- -- 68
2019-06-18 15:00:00 21.6 11 Sudeste 17 Sudeste 0 -- -- 68
2019-06-18 14:00:00 21.5 11 Sudeste 18 Sudeste 0 -- -- 69
2019-06-18 13:00:00 19.9 10 Sur 14 Sur 0 -- -- 78
2019-06-18 12:00:00 20.4 8 Sur 12 Sur 0 -- -- 77
2019-06-18 11:00:00 22.4 6 Sur 10 Sur 0 -- -- 60
2019-06-18 10:00:00 21.3 5 Sur 8 Sudoeste 0 -- -- 56
2019-06-18 09:00:00 20.8 4 Sur 6 Sur 0 -- -- 53
2019-06-18 08:00:00 20.4 4 Norte 11 Norte 0 -- -- 45
2019-06-18 07:00:00 18.1 0 Calma 3 Norte 0 -- -- 56
2019-06-18 06:00:00 19.3 0 Calma 12 Nordeste 0 -- -- 51
2019-06-18 05:00:00 19.7 7 Norte 12 Norte 0 -- -- 47
2019-06-18 04:00:00 19.1 4 Norte 12 Norte 0 -- -- 55
2019-06-18 03:00:00 17.7 0 Calma 4 Sur 0 -- -- 86
2019-06-18 02:00:00 18.9 2 Sur 4 Sudoeste 0 -- -- 88
2019-06-18 01:00:00 19 0 Calma 4 Sudoeste 0 -- -- 87
2019-06-18 00:00:00 19.3 3 Sur 5 Sudoeste 0 -- -- 85
2019-06-17 23:00:00 19.6 3 Sudoeste 5 Sur 0 -- -- 83
2019-06-17 22:00:00 19.6 4 Oeste 6 Sur 0 -- -- 83
2019-06-17 21:00:00 20.3 5 Sur 10 Sudoeste 0 -- -- 81
2019-06-17 20:00:00 20.8 6 Sudeste 13 Sur 0 -- -- 80
2019-06-17 19:00:00 20.7 8 Sur 13 Sudeste 0 -- -- 80
2019-06-17 18:00:00 21.3 8 Sudoeste 13 Sudoeste 0 -- -- 77
2019-06-17 17:00:00 21.2 9 Sudoeste 13 Sur 0 -- -- 75
2019-06-17 16:00:00 21.9 7 Sur 15 Sudoeste 0 -- -- 74
2019-06-17 15:00:00 21 10 Sudoeste 17 Sudoeste 0 -- -- 74
2019-06-17 14:00:00 20.3 10 Sudoeste 15 Sudoeste 0 -- -- 77
2019-06-17 13:00:00 20.5 11 Sudoeste 15 Sudoeste 0 -- -- 76
2019-06-17 12:00:00 21.3 7 Sur 12 Sudoeste 0 -- -- 64
2019-06-17 11:00:00 20.7 6 Sur 10 Sudeste 0 -- -- 59
2019-06-17 10:00:00 22 4 Sur 8 Este 0 -- -- 49
2019-06-17 09:00:00 21.5 3 Sudoeste 6 Nordeste 0 -- -- 45
2019-06-17 08:00:00 19.6 4 Nordeste 12 Norte 0 -- -- 45
2019-06-17 07:00:00 18.2 5 Norte 9 Norte 0 -- -- 47
2019-06-17 06:00:00 18.5 5 Nordeste 12 Nordeste 0 -- -- 47
2019-06-17 05:00:00 18.9 6 Nordeste 15 Norte 0 -- -- 47
2019-06-17 04:00:00 19 5 Nordeste 15 Nordeste 0 -- -- 47
2019-06-17 03:00:00 19.5 6 Norte 15 Norte 0 -- -- 47
2019-06-17 02:00:00 20 5 Nordeste 12 Nordeste 0 -- -- 47
2019-06-17 01:00:00 20.5 6 Nordeste 14 Norte 0 -- -- 49
2019-06-17 00:00:00 20.9 4 Nordeste 10 Nordeste 0 -- -- 50
2019-06-16 23:00:00 20.8 0 Calma 7 Oeste 0 -- -- 58
2019-06-16 22:00:00 21.5 5 Oeste 8 Oeste 0 -- -- 56
2019-06-16 21:00:00 23 3 Sudoeste 8 Sur 0 -- -- 55
2019-06-16 20:00:00 23.2 5 Sudoeste 10 Sudoeste 0 -- -- 55
2019-06-16 19:00:00 22.7 7 Sudoeste 10 Sudoeste 0 -- -- 58
2019-06-16 18:00:00 22.2 7 Sudoeste 13 Sudoeste 0 -- -- 59
2019-06-16 17:00:00 22 12 Sudoeste 14 Sudoeste 0 -- -- 59
2019-06-16 16:00:00 22.2 6 Sudoeste 12 Sur 0 -- -- 54
2019-06-16 15:00:00 20.7 11 Sur 13 Sur 0 -- -- 53
2019-06-16 14:00:00 22 8 Sur 14 Sur 0 -- -- 55
2019-06-16 13:00:00 22.8 6 Sudeste 11 Este 0 -- -- 50
2019-06-16 12:00:00 21.1 7 Sudoeste 11 Sur 0 -- -- 56
2019-06-16 11:00:00 22.6 5 Sur 11 Oeste 0 -- -- 49
2019-06-16 10:00:00 21.5 10 Oeste 16 Oeste 0 -- -- 56
2019-06-16 09:00:00 19.6 3 Norte 9 Norte 0 -- -- 49
2019-06-16 08:00:00 19 4 Norte 11 Nordeste 0 -- -- 52
2019-06-16 07:00:00 18 7 Norte 11 Este 0 -- -- 54
2019-06-16 06:00:00 17.3 0 Calma 12 Sur 0 -- -- 81
2019-06-16 05:00:00 17.5 5 Sur 9 Sur 0 -- -- 77
2019-06-16 04:00:00 17.6 4 Sudeste 9 Sudeste 0 -- -- 83
2019-06-16 03:00:00 17.9 4 Sudoeste 8 Sudoeste 0 -- -- 82
2019-06-16 02:00:00 17.8 5 Sudeste 12 Sudeste 0 -- -- 84
2019-06-16 01:00:00 18.1 5 Sudeste 10 Sudeste 0 -- -- 82
2019-06-16 00:00:00 18.2 7 Sudeste 11 Sudeste 0 -- -- 82
2019-06-15 23:00:00 18.5 4 Sur 10 Sudeste 0 -- -- 80
2019-06-15 22:00:00 18.7 4 Sur 18 Sudeste 0 -- -- 78
2019-06-15 21:00:00 20 13 Sudeste 21 Sudeste 0 -- -- 69
2019-06-15 20:00:00 20.7 15 Sudeste 26 Sudeste 0 -- -- 61
2019-06-15 19:00:00 21.7 12 Sudeste 21 Sur 0 -- -- 57
2019-06-15 18:00:00 22.4 15 Sudeste 29 Sudeste 0 -- -- 51
2019-06-15 17:00:00 21.5 18 Sudeste 39 Sudeste 0 -- -- 54
2019-06-15 16:00:00 21.6 18 Sudeste 38 Sudeste 0 -- -- 51
2019-06-15 15:00:00 21.5 30 Oeste 44 Oeste 0 -- -- 49
2019-06-15 14:00:00 24.6 20 Oeste 33 Noroeste 0 -- -- 38
2019-06-15 13:00:00 27.8 15 Noroeste 36 Oeste 0 -- -- 28
2019-06-15 12:00:00 25.1 19 Oeste 37 Oeste 0 -- -- 34
2019-06-15 11:00:00 23 18 Oeste 33 Oeste 0 -- -- 40
2019-06-15 10:00:00 21.3 16 Noroeste 37 Noroeste 0 -- -- 45
2019-06-15 09:00:00 19.6 18 Noroeste 37 Noroeste 0 -- -- 49
2019-06-15 08:00:00 18.6 22 Noroeste 40 Noroeste 0 -- -- 50
2019-06-15 07:00:00 18.6 13 Noroeste 30 Noroeste 0 -- -- 48
2019-06-15 06:00:00 19.1 13 Noroeste 26 Noroeste 0 -- -- 46
2019-06-15 05:00:00 20 13 Noroeste 36 Norte 0 -- -- 45
2019-06-15 04:00:00 20.3 15 Noroeste 32 Norte 0 -- -- 45
2019-06-15 03:00:00 20.5 15 Noroeste 36 Norte 0 -- -- 45
2019-06-15 02:00:00 20.9 15 Norte 33 Noroeste 0 -- -- 43
2019-06-15 01:00:00 21.7 14 Norte 32 Norte 0 -- -- 40
2019-06-15 00:00:00 22.3 16 Norte 36 Norte 0 -- -- 38
2019-06-14 23:00:00 23 12 Norte 27 Nordeste 0 -- -- 35
2019-06-14 22:00:00 23.2 9 Norte 22 Nordeste 0 -- -- 34
2019-06-14 21:00:00 21.9 6 Sudeste 18 Sudeste 0 -- -- 53
2019-06-14 20:00:00 21.3 9 Sur 31 Oeste 0 -- -- 56
2019-06-14 19:00:00 21.8 18 Oeste 43 Oeste 0 -- -- 52
2019-06-14 18:00:00 21 32 Oeste 45 Oeste 0 -- -- 55
2019-06-14 17:00:00 20.9 32 Oeste 48 Oeste 0 -- -- 56
2019-06-14 16:00:00 20.4 28 Oeste 44 Sudoeste 0 -- -- 61
2019-06-14 15:00:00 20.8 23 Oeste 49 Sudoeste 0 -- -- 60
2019-06-14 14:00:00 20.6 30 Oeste 51 Oeste 0 -- -- 58
2019-06-14 13:00:00 20.3 30 Oeste 46 Oeste 0 -- -- 60
2019-06-14 12:00:00 20.9 25 Oeste 38 Oeste 0 -- -- 55
2019-06-14 11:00:00 20.8 10 Sur 15 Oeste 0 -- -- 60
2019-06-14 10:00:00 20.4 13 Oeste 27 Oeste 0 -- -- 60
2019-06-14 09:00:00 19.9 12 Oeste 21 Oeste 0 -- -- 66
2019-06-14 08:00:00 19.4 5 Sur 10 Sudoeste 0 -- -- 82
2019-06-14 07:00:00 19.1 6 Sur 9 Sur 0 -- -- 86
2019-06-14 06:00:00 19.1 4 Sudoeste 7 Sudoeste 0 -- -- 87
2019-06-14 05:00:00 19.2 4 Sudeste 11 Sur 0 -- -- 86
2019-06-14 04:00:00 19.3 6 Sur 13 Sudeste 0 -- -- 85
2019-06-14 03:00:00 19.7 5 Sudeste 13 Sudeste 0 -- -- 83
2019-06-14 02:00:00 19.9 10 Sudeste 18 Sur 0 -- -- 82
2019-06-14 01:00:00 20.3 10 Sudeste 17 Sudeste 0 -- -- 78
2019-06-14 00:00:00 20.3 2 Sur 12 Este 0 -- -- 78
2019-06-13 23:00:00 20.3 7 Sudeste 13 Sudeste 0 -- -- 78
2019-06-13 22:00:00 20.2 8 Sudeste 12 Sudeste 0 -- -- 78
2019-06-13 21:00:00 20.9 6 Sudoeste 11 Sudoeste 0 -- -- 74
2019-06-13 20:00:00 22.9 4 Sudoeste 12 Sudoeste 0 -- -- 67
2019-06-13 19:00:00 22 9 Sudeste 13 Sudeste 0 -- -- 69
2019-06-13 18:00:00 23.1 8 Sur 12 Sur 0 -- -- 66
2019-06-13 17:00:00 22.8 7 Sudoeste 15 Sudoeste 0 -- -- 66
2019-06-13 16:00:00 22.7 10 Sudoeste 16 Sur 0 -- -- 64
2019-06-13 15:00:00 22.6 9 Sudoeste 16 Sudoeste 0 -- -- 64
2019-06-13 14:00:00 22.6 8 Sur 12 Sudoeste 0 -- -- 63
2019-06-13 13:00:00 23.2 8 Sudoeste 12 Sudoeste 0 -- -- 61
2019-06-13 12:00:00 23.6 5 Sudoeste 9 Sur 0 -- -- 57
2019-06-13 11:00:00 22.8 4 Sudoeste 6 Sudoeste 0 -- -- 62
2019-06-13 10:00:00 21.3 4 Sudoeste 8 Sudoeste 0 -- -- 69
2019-06-13 09:00:00 21 5 Sudeste 9 Este 0 -- -- 68
2019-06-13 08:00:00 19.3 3 Este 10 Nordeste 0 -- -- 70
2019-06-13 07:00:00 18.4 4 Nordeste 13 Noroeste 0 -- -- 72
2019-06-13 06:00:00 18.9 5 Norte 13 Norte 0 -- -- 79
2019-06-13 05:00:00 18.9 4 Norte 12 Norte 0 -- -- 73
2019-06-13 04:00:00 19 5 Nordeste 13 Nordeste 0 -- -- 73
2019-06-13 03:00:00 18.8 3 Norte 10 Nordeste 0 -- -- 77
2019-06-13 02:00:00 19.1 4 Sudeste 8 Sudeste 0 -- -- 79
2019-06-13 01:00:00 18.6 3 Sudeste 16 Sur 0 -- -- 83
2019-06-13 00:00:00 18.7 9 Sur 17 Sur 0 -- -- 84
2019-06-12 23:00:00 18.6 8 Sur 15 Sur 0 -- -- 84
2019-06-12 22:00:00 18.6 9 Sur 13 Sur 0 -- -- 84
2019-06-12 21:00:00 19.2 6 Sur 12 Sur 0 -- -- 80
2019-06-12 20:00:00 20.4 6 Sur 13 Sur 0 -- -- 75
2019-06-12 19:00:00 20.7 7 Sur 16 Sudeste 0 -- -- 71
2019-06-12 18:00:00 20.9 9 Sudeste 17 Sudeste 0 -- -- 68
2019-06-12 17:00:00 21.2 10 Sudeste 15 Sudeste 0 -- -- 66
2019-06-12 16:00:00 21.1 11 Sudeste 15 Sudeste 0 -- -- 63
2019-06-12 15:00:00 21.8 8 Sudoeste 13 Sur 0 -- -- 60
2019-06-12 14:00:00 21.5 6 Sudoeste 14 Sudoeste 0 -- -- 59
2019-06-12 13:00:00 22.4 5 Sur 10 Sur 0 -- -- 55
2019-06-12 12:00:00 20.8 7 Sudoeste 15 Sur 0 -- -- 64
2019-06-12 11:00:00 19.9 9 Sudoeste 17 Sur 0 -- -- 70
2019-06-12 10:00:00 18.5 9 Sudoeste 15 Sur 0 -- -- 78
2019-06-12 09:00:00 18.4 12 Sudoeste 21 Sur 0 -- -- 78
2019-06-12 08:00:00 18 11 Sur 19 Sudeste 0 -- -- 81
2019-06-12 07:00:00 17.8 11 Sur 26 Sur 0 -- -- 81
2019-06-12 06:00:00 18.2 12 Sudeste 31 Sudeste 0 -- -- 80
2019-06-12 05:00:00 18.2 14 Sur 27 Sudeste 0 -- -- 84
2019-06-12 04:00:00 19.2 14 Sudeste 47 Sudeste 0 -- -- 81
2019-06-12 03:00:00 19.9 22 Sudeste 58 Sudeste 0 -- -- 78
2019-06-12 02:00:00 20.5 16 Sudeste 65 Sudeste 0 -- -- 69
2019-06-12 01:00:00 25 15 Noroeste 28 Norte 0 -- -- 38
2019-06-12 00:00:00 25.7 13 Norte 30 Norte 0 -- -- 38
2019-06-11 23:00:00 26.9 16 Noroeste 29 Norte 0 -- -- 36
2019-06-11 22:00:00 28.6 9 Norte 28 Norte 0 -- -- 25
2019-06-11 21:00:00 29.4 16 Norte 36 Noroeste 0 -- -- 26
2019-06-11 20:00:00 29.9 20 Norte 40 Norte 0 -- -- 25
2019-06-11 19:00:00 30 21 Norte 41 Nordeste 0 -- -- 25
2019-06-11 18:00:00 30.3 17 Norte 45 Norte 0 -- -- 25
2019-06-11 17:00:00 30 18 Norte 42 Norte 0 -- -- 25
2019-06-11 16:00:00 29.6 19 Norte 38 Noroeste 0 -- -- 26
2019-06-11 15:00:00 29.2 18 Norte 46 Norte 0 -- -- 24
2019-06-11 14:00:00 28.5 19 Nordeste 44 Nordeste 0 -- -- 29
2019-06-11 13:00:00 23.2 14 Oeste 32 Oeste 0 -- -- 45
2019-06-11 12:00:00 22.8 12 Sudoeste 27 Oeste 0 -- -- 50
2019-06-11 11:00:00 26.8 12 Norte 28 Norte 0 -- -- 22
2019-06-11 10:00:00 26 11 Norte 23 Norte 0 -- -- 26
2019-06-11 09:00:00 23.5 8 Oeste 21 Noroeste 0 -- -- 39
2019-06-11 08:00:00 21.8 9 Noroeste 28 Noroeste 0 -- -- 43
2019-06-11 07:00:00 21.8 12 Norte 30 Norte 0 -- -- 42
2019-06-11 06:00:00 22.5 18 Noroeste 31 Noroeste 0 -- -- 39
2019-06-11 05:00:00 23 18 Norte 36 Nordeste 0 -- -- 37
2019-06-11 04:00:00 23.2 22 Norte 39 Norte 0 -- -- 37
2019-06-11 03:00:00 23.7 17 Norte 42 Norte 0 -- -- 35
2019-06-11 02:00:00 24 20 Norte 35 Norte 0 -- -- 35
2019-06-11 01:00:00 24.4 18 Norte 31 Norte 0 -- -- 34
2019-06-11 00:00:00 24.9 12 Norte 27 Norte 0 -- -- 34
2019-06-10 23:00:00 25.7 12 Norte 33 Norte 0 -- -- 33
2019-06-10 22:00:00 28 10 Norte 28 Norte 0 -- -- 25
2019-06-10 21:00:00 29.1 14 Norte 37 Norte 0 -- -- 21
2019-06-10 20:00:00 29.7 18 Norte 36 Norte 0 -- -- 20
2019-06-10 19:00:00 30.1 17 Noroeste 39 Noroeste 0 -- -- 19
2019-06-10 18:00:00 29.8 13 Noroeste 38 Noroeste 0 -- -- 29
2019-06-10 17:00:00 24.9 19 Oeste 35 Oeste 0 -- -- 46
2019-06-10 16:00:00 29 17 Norte 35 Noroeste 0 -- -- 20
2019-06-10 15:00:00 28.9 17 Noroeste 37 Noroeste 0 -- -- 25
2019-06-10 14:00:00 27.6 15 Noroeste 42 Noroeste 0 -- -- 28
2019-06-10 13:00:00 27.1 15 Norte 41 Noroeste 0 -- -- 30
2019-06-10 12:00:00 26.5 16 Norte 36 Noroeste 0 -- -- 29
2019-06-10 11:00:00 25.9 15 Norte 35 Norte 0 -- -- 31
2019-06-10 10:00:00 24.4 12 Noroeste 32 Noroeste 0 -- -- 38
2019-06-10 09:00:00 22.2 14 Norte 31 Noroeste 0 -- -- 44
2019-06-10 08:00:00 21.4 10 Noroeste 30 Noroeste 0 -- -- 46
2019-06-10 07:00:00 21.3 13 Noroeste 27 Noroeste 0 -- -- 45
2019-06-10 06:00:00 21.9 7 Noroeste 35 Noroeste 0 -- -- 43
2019-06-10 05:00:00 22.5 14 Noroeste 30 Noroeste 0 -- -- 41
2019-06-10 04:00:00 22.8 12 Noroeste 32 Norte 0 -- -- 40
2019-06-10 03:00:00 23.6 14 Norte 31 Norte 0 -- -- 38
2019-06-10 02:00:00 24 14 Norte 30 Norte 0 -- -- 34
2019-06-10 01:00:00 24.7 15 Norte 30 Norte 0 -- -- 30
2019-06-10 00:00:00 25.1 10 Norte 20 Norte 0 -- -- 27
2019-06-09 23:00:00 26.1 12 Norte 24 Nordeste 0 -- -- 25
2019-06-09 22:00:00 27.6 8 Norte 22 Norte 0 -- -- 23
2019-06-09 21:00:00 28.9 13 Norte 23 Nordeste 0 -- -- 23
2019-06-09 20:00:00 26 6 Sudoeste 36 Oeste 0 -- -- 48
2019-06-09 19:00:00 24.6 23 Oeste 35 Oeste 0 -- -- 51
2019-06-09 18:00:00 24.9 18 Oeste 32 Oeste 0 -- -- 51
2019-06-09 17:00:00 23.6 8 Sur 25 Sudoeste 0 -- -- 58
2019-06-09 16:00:00 22.6 7 Sur 28 Sudoeste 0 -- -- 66
2019-06-09 15:00:00 21.2 17 Sudoeste 33 Sudoeste 0 -- -- 71
2019-06-09 14:00:00 20.7 18 Oeste 35 Oeste 0 -- -- 77
2019-06-09 13:00:00 20.7 23 Oeste 32 Oeste 0 -- -- 79
2019-06-09 12:00:00 21 18 Oeste 25 Oeste 0 -- -- 77
2019-06-09 11:00:00 21.2 11 Oeste 15 Sudoeste 0 -- -- 78
2019-06-09 10:00:00 21.6 6 Sudoeste 10 Sudoeste 0 -- -- 76
2019-06-09 09:00:00 21 5 Sudoeste 9 Sudoeste 0 -- -- 81
2019-06-09 08:00:00 20.1 4 Sudoeste 6 Sudoeste 0 -- -- 84
2019-06-09 07:00:00 20 3 Oeste 5 Oeste 0 -- -- 84
2019-06-09 06:00:00 20 4 Sudeste 8 Sudeste 0 -- -- 84
2019-06-09 05:00:00 19.9 4 Sur 9 Sudeste 0 -- -- 85
2019-06-09 04:00:00 20 4 Sur 8 Sur 0 -- -- 84
2019-06-09 03:00:00 20.6 4 Sur 8 Sudoeste 0 -- -- 82
2019-06-09 02:00:00 20.7 3 Sur 10 Sudeste 0 -- -- 81
2019-06-09 01:00:00 20.4 5 Sur 12 Sudeste 0 -- -- 82
2019-06-09 00:00:00 20.5 8 Sur 13 Sur 0 -- -- 81
2019-06-08 23:00:00 20.6 8 Sur 14 Sur 0 -- -- 80
2019-06-08 22:00:00 20.5 7 Sur 16 Sur 0 -- -- 81
2019-06-08 21:00:00 21.1 10 Sur 18 Sur 0 -- -- 77
2019-06-08 20:00:00 22.2 10 Sur 16 Sur 0 -- -- 72
2019-06-08 19:00:00 21.8 7 Sur 14 Sur 0 -- -- 73
2019-06-08 18:00:00 22.9 8 Sudeste 15 Sudeste 0 -- -- 70
2019-06-08 17:00:00 23.5 7 Sudeste 18 Sudeste 0 -- -- 67
2019-06-08 16:00:00 21.2 12 Sur 19 Sudeste 0 -- -- 75
2019-06-08 15:00:00 23.1 7 Sudeste 15 Este 0 -- -- 67
2019-06-08 14:00:00 22.4 8 Sur 19 Sudeste 0 -- -- 69
2019-06-08 13:00:00 22.3 6 Sudeste 22 Sudeste 0 -- -- 68
2019-06-08 12:00:00 21.2 11 Sudeste 33 Sudeste 0 -- -- 68
2019-06-08 11:00:00 21.6 6 Sur 13 Sur 0 -- -- 70
2019-06-08 10:00:00 21.9 7 Sudoeste 12 Sudoeste 0 -- -- 65
2019-06-08 09:00:00 21.7 3 Nordeste 10 Nordeste 0 -- -- 57
2019-06-08 08:00:00 19.4 4 Nordeste 13 Sudeste 0 -- -- 55
2019-06-08 07:00:00 19 6 Sudeste 25 Sudeste 0 -- -- 77
2019-06-08 06:00:00 19.1 12 Sudeste 29 Sudeste 0 -- -- 78
2019-06-08 05:00:00 19.7 13 Sudeste 36 Sudeste 0 -- -- 74
2019-06-08 04:00:00 19 14 Sudeste 41 Sudeste 0 -- -- 68
2019-06-08 03:00:00 23 2 Norte 22 Noroeste 0 -- -- 24
2019-06-08 02:00:00 23.8 12 Noroeste 25 Norte 0 -- -- 23
2019-06-08 01:00:00 24.3 12 Noroeste 23 Norte 0 -- -- 22
2019-06-08 00:00:00 25.4 14 Noroeste 26 Noroeste 0 -- -- 22
2019-06-07 23:00:00 26.2 9 Norte 21 Norte 0 -- -- 24
2019-06-07 22:00:00 26.8 8 Norte 15 Norte 0 -- -- 24
2019-06-07 21:00:00 25 0 Calma 14 Sudeste 0 -- -- 53
2019-06-07 20:00:00 22.4 6 Sudoeste 32 Oeste 0 -- -- 61
2019-06-07 19:00:00 21.8 16 Sudoeste 38 Oeste 0 -- -- 62
2019-06-07 18:00:00 21.1 29 Oeste 50 Oeste 0 -- -- 64
2019-06-07 17:00:00 20.9 37 Oeste 50 Oeste 0 -- -- 64
2019-06-07 16:00:00 21.3 30 Oeste 42 Oeste 0 -- -- 65
2019-06-07 15:00:00 26.4 15 Noroeste 36 Noroeste 0 -- -- 37
2019-06-07 14:00:00 25.7 14 Norte 36 Noroeste 0 -- -- 43
2019-06-07 13:00:00 24.6 18 Norte 35 Norte 0 -- -- 46
2019-06-07 12:00:00 24.2 15 Norte 39 Norte 0 -- -- 47
2019-06-07 11:00:00 22.9 16 Nordeste 35 Noroeste 0 -- -- 52
2019-06-07 10:00:00 22.4 15 Norte 33 Noroeste 0 -- -- 52
2019-06-07 09:00:00 20.9 15 Norte 30 Noroeste 0 -- -- 58
2019-06-07 08:00:00 20.2 12 Norte 29 Norte 0 -- -- 58
2019-06-07 07:00:00 19.4 12 Norte 29 Nordeste 0 -- -- 57
2019-06-07 06:00:00 20.2 17 Norte 34 Nordeste 0 -- -- 53
2019-06-07 05:00:00 20.5 15 Norte 33 Norte 0 -- -- 51
2019-06-07 04:00:00 21.1 15 Norte 36 Norte 0 -- -- 44
2019-06-07 03:00:00 22 15 Norte 33 Norte 0 -- -- 34
2019-06-07 02:00:00 22.6 16 Norte 32 Norte 0 -- -- 28
2019-06-07 01:00:00 21 4 Norte 8 Noroeste 0 -- -- 41
2019-06-07 00:00:00 20.3 0 Calma 10 Sudeste 0 -- -- 61
2019-06-06 23:00:00 20.6 7 Sudeste 16 Sudeste 0 -- -- 59
2019-06-06 22:00:00 22 9 Sudeste 16 Sudeste 0 -- -- 49
2019-06-06 21:00:00 21.5 10 Sudeste 16 Sudeste 0 -- -- 56
2019-06-06 20:00:00 21.7 8 Sur 26 Oeste 0 -- -- 56
2019-06-06 19:00:00 22.5 19 Oeste 29 Oeste 0 -- -- 46
2019-06-06 18:00:00 22.5 11 Sur 28 Oeste 0 -- -- 51
2019-06-06 17:00:00 21.4 9 Sur 21 Sudeste 0 -- -- 55
2019-06-06 16:00:00 21.1 13 Sudeste 21 Sudeste 0 -- -- 63
2019-06-06 15:00:00 23 12 Sudeste 22 Sudoeste 0 -- -- 47
2019-06-06 14:00:00 21.6 9 Sudeste 28 Sudoeste 0 -- -- 55
2019-06-06 13:00:00 19.9 19 Sudoeste 30 Oeste 0 -- -- 63
2019-06-06 12:00:00 21 11 Sudoeste 23 Sudoeste 0 -- -- 55
2019-06-06 11:00:00 24.1 9 Noroeste 25 Oeste 0 -- -- 33
2019-06-06 10:00:00 22.3 11 Noroeste 27 Noroeste 0 -- -- 39
2019-06-06 09:00:00 20.6 18 Noroeste 30 Noroeste 0 -- -- 42
2019-06-06 08:00:00 19.7 15 Noroeste 29 Noroeste 0 -- -- 43
2019-06-06 07:00:00 19.5 12 Noroeste 28 Noroeste 0 -- -- 42
2019-06-06 06:00:00 20.4 13 Norte 27 Norte 0 -- -- 39
2019-06-06 05:00:00 20.8 10 Noroeste 24 Noroeste 0 -- -- 38
2019-06-06 04:00:00 21 17 Norte 30 Norte 0 -- -- 39
2019-06-06 03:00:00 21 12 Norte 21 Norte 0 -- -- 42
2019-06-06 02:00:00 21.5 11 Norte 24 Norte 0 -- -- 42
2019-06-06 01:00:00 22 10 Norte 24 Noroeste 0 -- -- 41
2019-06-06 00:00:00 23 13 Norte 29 Noroeste 0 -- -- 38
2019-06-05 23:00:00 24.3 11 Norte 23 Norte 0 -- -- 25
2019-06-05 22:00:00 24.9 11 Norte 29 Norte 0 -- -- 24
2019-06-05 21:00:00 26 15 Norte 33 Nordeste 0 -- -- 22
2019-06-05 20:00:00 26.2 15 Norte 36 Noroeste 0 -- -- 23
2019-06-05 19:00:00 26.6 14 Norte 39 Noroeste 0 -- -- 23
2019-06-05 18:00:00 26.3 17 Norte 41 Noroeste 0 -- -- 24
2019-06-05 17:00:00 25.6 21 Noroeste 41 Noroeste 0 -- -- 26
2019-06-05 16:00:00 25.8 19 Norte 43 Noroeste 0 -- -- 26
2019-06-05 15:00:00 25 18 Noroeste 50 Noroeste 0 -- -- 28
2019-06-05 14:00:00 24.1 21 Norte 44 Nordeste 0 -- -- 27
2019-06-05 13:00:00 23.3 24 Norte 52 Noroeste 0 -- -- 29
2019-06-05 12:00:00 22.1 21 Norte 42 Norte 0 -- -- 32
2019-06-05 11:00:00 21.3 17 Norte 44 Noroeste 0 -- -- 33
2019-06-05 10:00:00 20.1 24 Norte 42 Norte 0 -- -- 34
2019-06-05 09:00:00 19.6 22 Norte 44 Norte 0 -- -- 39
2019-06-05 08:00:00 19.5 22 Norte 44 Norte 0 -- -- 41
2019-06-05 07:00:00 20.4 17 Norte 42 Norte 0 -- -- 51
2019-06-05 06:00:00 21.2 15 Norte 32 Norte 0 -- -- 53
2019-06-05 05:00:00 22.1 15 Norte 36 Norte 0 -- -- 53
2019-06-05 04:00:00 22.8 14 Norte 30 Noroeste 0 -- -- 55
2019-06-05 03:00:00 23.5 17 Norte 28 Noroeste 0 -- -- 54
2019-06-05 02:00:00 24 13 Norte 32 Norte 0 -- -- 51
2019-06-05 01:00:00 25.2 8 Norte 18 Noroeste 0 -- -- 44
2019-06-05 00:00:00 24.8 3 Noroeste 9 Noroeste 0 -- -- 52
2019-06-04 23:00:00 22.6 0 Calma 13 Sudeste 0 -- -- 68
2019-06-04 22:00:00 22.9 12 Sudeste 23 Sudeste 0 -- -- 66
2019-06-04 21:00:00 24.3 19 Sudeste 34 Sudeste 0 -- -- 59
2019-06-04 20:00:00 24.9 20 Sudeste 32 Sudeste 0 -- -- 58
2019-06-04 19:00:00 24 13 Sudeste 25 Sur 0 -- -- 63
2019-06-04 18:00:00 24.9 10 Sudeste 25 Sur 0 -- -- 60
2019-06-04 17:00:00 22.8 17 Sudeste 25 Sur 0 -- -- 68
2019-06-04 16:00:00 23.1 12 Sur 21 Sur 0 -- -- 59
2019-06-04 15:00:00 23.7 8 Sur 22 Sur 0 -- -- 47
2019-06-04 14:00:00 22.5 6 Sudeste 22 Sudeste 0 -- -- 66
2019-06-04 13:00:00 21.6 10 Sur 20 Sudoeste 0 -- -- 74
2019-06-04 12:00:00 21.5 12 Sudoeste 19 Sur 0 -- -- 63
2019-06-04 11:00:00 23.4 4 Sudeste 10 Sur 0 -- -- 53
2019-06-04 10:00:00 20.9 7 Sur 11 Sudeste 0 -- -- 58
2019-06-04 09:00:00 22.4 5 Sudeste 9 Este 0 -- -- 41
2019-06-04 08:00:00 19.9 3 Este 9 Oeste 0 -- -- 43
2019-06-04 07:00:00 18.9 4 Norte 9 Noroeste 0 -- -- 45
2019-06-04 06:00:00 19.2 5 Nordeste 12 Nordeste 0 -- -- 36
2019-06-04 05:00:00 19.2 4 Norte 12 Norte 0 -- -- 44
2019-06-04 04:00:00 19.6 4 Norte 8 Norte 0 -- -- 45
2019-06-04 03:00:00 19.7 2 Norte 11 Nordeste 0 -- -- 47
2019-06-04 02:00:00 20.1 3 Nordeste 15 Norte 0 -- -- 47
2019-06-04 01:00:00 20.4 9 Norte 14 Norte 0 -- -- 46
2019-06-04 00:00:00 20.8 2 Nordeste 11 Nordeste 0 -- -- 44
2019-06-03 23:00:00 20.1 0 Calma 7 Este 0 -- -- 71
2019-06-03 22:00:00 20.2 4 Sur 6 Sur 0 -- -- 76
2019-06-03 21:00:00 21.2 6 Sur 11 Sur 0 -- -- 72
2019-06-03 20:00:00 22.1 8 Sudoeste 12 Sur 0 -- -- 68
2019-06-03 19:00:00 21.8 8 Sur 13 Sur 0 -- -- 67
2019-06-03 18:00:00 21.8 9 Sur 14 Sur 0 -- -- 72
2019-06-03 17:00:00 21.4 9 Sur 17 Sudoeste 0 -- -- 73
2019-06-03 16:00:00 21.8 10 Sur 16 Sur 0 -- -- 72
2019-06-03 15:00:00 21.2 10 Sur 14 Sur 0 -- -- 76
2019-06-03 14:00:00 21.6 12 Sudoeste 17 Sudoeste 0 -- -- 72
2019-06-03 13:00:00 21.3 9 Sur 14 Sur 0 -- -- 72
2019-06-03 12:00:00 22.3 7 Sur 13 Sur 0 -- -- 60
2019-06-03 11:00:00 21.8 7 Sur 10 Sur 0 -- -- 56
2019-06-03 10:00:00 22.9 4 Sudoeste 6 Sur 0 -- -- 40
2019-06-03 09:00:00 23.7 3 Sudeste 7 Norte 0 -- -- 38
2019-06-03 08:00:00 19.9 5 Nordeste 14 Norte 0 -- -- 42
2019-06-03 07:00:00 18.6 8 Norte 13 Nordeste 0 -- -- 46
2019-06-03 06:00:00 18.8 9 Norte 19 Norte 0 -- -- 47
2019-06-03 05:00:00 19 8 Nordeste 17 Norte 0 -- -- 47
2019-06-03 04:00:00 19.3 6 Nordeste 17 Nordeste 0 -- -- 47
2019-06-03 03:00:00 19.7 9 Norte 15 Nordeste 0 -- -- 47
2019-06-03 02:00:00 20.2 5 Nordeste 17 Nordeste 0 -- -- 48
2019-06-03 01:00:00 20.6 4 Nordeste 12 Nordeste 0 -- -- 48
2019-06-03 00:00:00 21.1 7 Nordeste 13 Nordeste 0 -- -- 49
2019-06-02 23:00:00 21.6 3 Nordeste 7 Nordeste 0 -- -- 53
2019-06-02 22:00:00 21 2 Sudoeste 6 Sudoeste 0 -- -- 56
2019-06-02 21:00:00 22.6 4 Sudoeste 12 Sudeste 0 -- -- 56
2019-06-02 20:00:00 23.3 5 Sudeste 15 Sur 0 -- -- 55
2019-06-02 19:00:00 22 12 Sur 17 Sur 0 -- -- 55
2019-06-02 18:00:00 22.6 12 Sur 17 Sudoeste 0 -- -- 50
2019-06-02 17:00:00 22.4 12 Sur 17 Sur 0 -- -- 49
2019-06-02 16:00:00 23 12 Sudoeste 17 Sudoeste 0 -- -- 47
2019-06-02 15:00:00 22.7 15 Sudoeste 20 Sudoeste 0 -- -- 48
2019-06-02 14:00:00 23.1 14 Sudoeste 21 Sudoeste 0 -- -- 47
2019-06-02 13:00:00 24 13 Sudoeste 18 Sudoeste 0 -- -- 34
2019-06-02 12:00:00 23.9 10 Sudoeste 16 Sudoeste 0 -- -- 40
2019-06-02 11:00:00 23.8 10 Sudoeste 12 Sudoeste 0 -- -- 37
2019-06-02 10:00:00 23.5 4 Oeste 10 Oeste 0 -- -- 41
2019-06-02 09:00:00 20.6 8 Norte 18 Nordeste 0 -- -- 42
2019-06-02 08:00:00 18.6 10 Norte 19 Nordeste 0 -- -- 46
2019-06-02 07:00:00 17.7 11 Norte 19 Nordeste 0 -- -- 50
2019-06-02 06:00:00 17.9 7 Nordeste 15 Norte 0 -- -- 51
2019-06-02 05:00:00 18.1 7 Nordeste 15 Nordeste 0 -- -- 51
2019-06-02 04:00:00 18.5 8 Nordeste 17 Nordeste 0 -- -- 50
2019-06-02 03:00:00 18.9 8 Nordeste 14 Nordeste 0 -- -- 49
2019-06-02 02:00:00 19.8 4 Nordeste 11 Nordeste 0 -- -- 48
2019-06-02 01:00:00 20.6 4 Nordeste 8 Este 0 -- -- 48
2019-06-02 00:00:00 20.9 4 Sur 11 Sudeste 0 -- -- 58
2019-06-01 23:00:00 21.2 5 Sudeste 17 Sur 0 -- -- 55
2019-06-01 22:00:00 21 7 Sur 14 Sudoeste 0 -- -- 59
2019-06-01 21:00:00 22.1 10 Sudoeste 20 Sudoeste 0 -- -- 55
2019-06-01 20:00:00 22.6 9 Sudoeste 21 Sudoeste 0 -- -- 51
2019-06-01 19:00:00 22.9 9 Sudoeste 14 Sudoeste 0 -- -- 53
2019-06-01 18:00:00 22.7 7 Sur 17 Sudeste 0 -- -- 55
2019-06-01 17:00:00 21.8 13 Sur 17 Sudeste 0 -- -- 55
2019-06-01 16:00:00 22.7 10 Sur 19 Sudeste 0 -- -- 51
2019-06-01 15:00:00 22.7 12 Sur 19 Sur 0 -- -- 47
2019-06-01 14:00:00 24.1 7 Sur 19 Sur 0 -- -- 42
2019-06-01 13:00:00 23.4 10 Sur 21 Sur 0 -- -- 46
2019-06-01 12:00:00 22.1 18 Sur 24 Sur 0 -- -- 46
2019-06-01 11:00:00 23.1 9 Sudoeste 13 Sudoeste 0 -- -- 46
2019-06-01 10:00:00 23.1 6 Sudoeste 11 Oeste 0 -- -- 47
2019-06-01 09:00:00 21.1 2 Norte 21 Norte 0 -- -- 60
2019-06-01 08:00:00 17.7 9 Norte 20 Nordeste 0 -- -- 69
2019-06-01 07:00:00 17 6 Norte 19 Nordeste 0 -- -- 71
2019-06-01 06:00:00 17.4 7 Nordeste 15 Nordeste 0 -- -- 70
2019-06-01 05:00:00 17.8 5 Nordeste 12 Nordeste 0 -- -- 69
2019-06-01 04:00:00 18.3 5 Nordeste 12 Norte 0 -- -- 67
2019-06-01 03:00:00 18.6 5 Norte 12 Norte 0 -- -- 66
2019-06-01 02:00:00 19 8 Norte 11 Norte 0 -- -- 64
2019-06-01 01:00:00 19.9 3 Sudeste 13 Sudeste 0 -- -- 68
2019-06-01 00:00:00 20.2 4 Sudeste 8 Sudeste 0 -- -- 67
2019-05-31 23:00:00 20.2 4 Sur 9 Sur 0 -- -- 65
2019-05-31 22:00:00 20.3 5 Sur 9 Sur 0 -- -- 63
2019-05-31 21:00:00 21.6 5 Sudoeste 12 Sur 0 -- -- 58
2019-05-31 20:00:00 22.5 4 Sur 14 Sudoeste 0 -- -- 55
2019-05-31 19:00:00 22.5 8 Sudoeste 15 Sur 0 -- -- 56
2019-05-31 18:00:00 21.9 10 Sur 24 Sur 0 -- -- 57
2019-05-31 17:00:00 21.7 14 Sur 22 Sur 0 -- -- 59
2019-05-31 16:00:00 21.2 17 Sur 25 Sur 0 -- -- 61
2019-05-31 15:00:00 21.2 17 Sur 24 Sudoeste 0 -- -- 61
2019-05-31 14:00:00 21.3 15 Sur 22 Sur 0 -- -- 55
2019-05-31 13:00:00 21.4 15 Sur 24 Sur 0 -- -- 54
2019-05-31 12:00:00 21 12 Sur 17 Sur 0 -- -- 60
2019-05-31 11:00:00 21 10 Sur 15 Sur 0 -- -- 58
2019-05-31 10:00:00 23 3 Sudeste 10 Sudeste 0 -- -- 51
2019-05-31 09:00:00 19.7 5 Nordeste 17 Norte 0 -- -- 64
2019-05-31 08:00:00 17.2 9 Nordeste 17 Norte 0 -- -- 69
2019-05-31 07:00:00 16.6 9 Norte 15 Nordeste 0 -- -- 70
2019-05-31 06:00:00 16.9 9 Nordeste 15 Nordeste 0 -- -- 68
2019-05-31 05:00:00 17.5 5 Nordeste 13 Norte 0 -- -- 65
2019-05-31 04:00:00 17.6 5 Norte 16 Nordeste 0 -- -- 63
2019-05-31 03:00:00 18 6 Nordeste 14 Nordeste 0 -- -- 59
2019-05-31 02:00:00 18.6 5 Nordeste 14 Nordeste 0 -- -- 56
2019-05-31 01:00:00 19.1 5 Nordeste 11 Nordeste 0 -- -- 55
2019-05-31 00:00:00 19.5 5 Sudoeste 10 Sur 0 -- -- 68
2019-05-30 23:00:00 19.8 8 Sur 22 Sur 0 -- -- 70
2019-05-30 22:00:00 19.8 11 Sudeste 29 Sudeste 0 -- -- 66
2019-05-30 21:00:00 20.2 13 Sur 24 Sur 0 -- -- 65
2019-05-30 20:00:00 20.3 17 Sur 27 Sur 0 -- -- 67
2019-05-30 19:00:00 20.6 17 Sur 27 Sudeste 0 -- -- 66
2019-05-30 18:00:00 20.6 17 Sur 27 Sudeste 0 -- -- 67
2019-05-30 17:00:00 20.9 15 Sur 25 Sudeste 0 -- -- 64
2019-05-30 16:00:00 20.7 17 Sur 27 Sur 0 -- -- 63
2019-05-30 15:00:00 21.9 12 Sur 20 Sudoeste 0 -- -- 63
2019-05-30 14:00:00 21.9 11 Sur 26 Sur 0 -- -- 62
2019-05-30 13:00:00 21 15 Sur 25 Sur 0 -- -- 65
2019-05-30 12:00:00 21.4 10 Sur 21 Sur 0 -- -- 63
2019-05-30 11:00:00 19.9 15 Sur 21 Sur 0 -- -- 71
2019-05-30 10:00:00 21 6 Sur 11 Sur 0 -- -- 65
2019-05-30 09:00:00 21.3 2 Este 11 Norte 0 -- -- 63
2019-05-30 08:00:00 18.3 6 Norte 16 Norte 0 -- -- 68
2019-05-30 07:00:00 17.7 4 Norte 9 Nordeste 0 -- -- 70
2019-05-30 06:00:00 18.8 4 Sudeste 13 Sudeste 0 -- -- 70
2019-05-30 05:00:00 18.1 5 Norte 13 Nordeste 0 -- -- 69
2019-05-30 04:00:00 18.2 5 Nordeste 12 Norte 0 -- -- 68
2019-05-30 03:00:00 18.4 6 Norte 12 Nordeste 0 -- -- 68
2019-05-30 02:00:00 19.4 8 Sudeste 19 Sudeste 0 -- -- 78
2019-05-30 01:00:00 19.5 10 Sudeste 19 Sur 0 -- -- 76
2019-05-30 00:00:00 19.6 10 Sur 26 Sur 0 -- -- 79
2019-05-29 23:00:00 19.6 14 Sur 30 Sur 0 -- -- 75
2019-05-29 22:00:00 20.1 14 Sur 28 Sur 0 -- -- 74
2019-05-29 21:00:00 20.4 18 Sur 34 Sudeste 0 -- -- 69
2019-05-29 20:00:00 20.8 17 Sur 29 Sur 0 -- -- 70
2019-05-29 19:00:00 20.9 16 Sur 26 Sur 0 -- -- 71
2019-05-29 18:00:00 21.2 16 Sur 22 Sudeste 0 -- -- 73
2019-05-29 17:00:00 21.7 12 Sur 20 Sur 0 -- -- 67
2019-05-29 16:00:00 22 13 Sudoeste 18 Sudoeste 0 -- -- 63
2019-05-29 15:00:00 22.3 12 Sudoeste 18 Sur 0 -- -- 57
2019-05-29 14:00:00 22.1 12 Sur 18 Sur 0 -- -- 56
2019-05-29 13:00:00 22.6 10 Sudoeste 19 Sudoeste 0 -- -- 59
2019-05-29 12:00:00 22.7 12 Sudoeste 20 Sudoeste 0 -- -- 60
2019-05-29 11:00:00 22.9 10 Sudoeste 14 Sudoeste 0 -- -- 61
2019-05-29 10:00:00 23.2 4 Sudoeste 9 Sudoeste 0 -- -- 63
2019-05-29 09:00:00 22.2 3 Nordeste 14 Nordeste 0 -- -- 64
2019-05-29 08:00:00 20 7 Nordeste 13 Norte 0 -- -- 67
2019-05-29 07:00:00 19.4 10 Norte 14 Nordeste 0 -- -- 69
2019-05-29 06:00:00 19.7 3 Nordeste 12 Sudeste 0 -- -- 71
2019-05-29 05:00:00 20.6 6 Sudeste 19 Sudeste 0 -- -- 75
2019-05-29 04:00:00 21 10 Sudeste 23 Este 0 -- -- 65
2019-05-29 03:00:00 20.7 4 Sur 14 Sur 0 -- -- 69
2019-05-29 02:00:00 20.6 3 Sur 9 Sudeste 0 -- -- 69
2019-05-29 01:00:00 20.3 6 Sudeste 14 Sudeste 0 -- -- 76
2019-05-29 00:00:00 20.4 3 Sudeste 8 Sur 0 -- -- 83
2019-05-28 23:00:00 20.5 4 Sudeste 11 Este 0 -- -- 79
2019-05-28 22:00:00 20.6 8 Sudeste 14 Sudeste 0 -- -- 84
2019-05-28 21:00:00 21.3 6 Sudeste 13 Sudeste 0 -- -- 81
2019-05-28 20:00:00 21.5 9 Sur 15 Sudeste 0 -- -- 79
2019-05-28 19:00:00 21.9 10 Sur 16 Sudeste 0 -- -- 79
2019-05-28 18:00:00 22 10 Sur 19 Sudeste 0 -- -- 79
2019-05-28 17:00:00 22 13 Sudeste 19 Sudeste 0 -- -- 79
2019-05-28 16:00:00 21.7 12 Sur 20 Sudeste 0 -- -- 81
2019-05-28 15:00:00 21.5 12 Sur 19 Sur 0 -- -- 80
2019-05-28 14:00:00 21.1 11 Sur 18 Sur 0 -- -- 84
2019-05-28 13:00:00 21.4 10 Sur 17 Sur 0 -- -- 81
2019-05-28 12:00:00 21.1 10 Sur 15 Sudoeste 0 -- -- 82
2019-05-28 11:00:00 22.3 7 Sur 11 Sudoeste 0 -- -- 72
2019-05-28 10:00:00 22.3 5 Sur 7 Sudoeste 0 -- -- 68
2019-05-28 09:00:00 22.3 3 Sudeste 8 Sudeste 0 -- -- 72
2019-05-28 08:00:00 20.3 5 Sudeste 8 Sudeste 0 -- -- 77
2019-05-28 07:00:00 18.6 3 Sur 9 Sudeste 0 -- -- 77
2019-05-28 06:00:00 18.6 6 Sudeste 11 Sudeste 0 -- -- 77
2019-05-28 05:00:00 19.4 2 Sudeste 6 Nordeste 0 -- -- 77
2019-05-28 04:00:00 19.2 0 Calma 6 Sudeste 0 -- -- 77
2019-05-28 03:00:00 19.3 5 Sur 7 Sur 0 -- -- 75
2019-05-28 02:00:00 19.5 2 Sur 6 Sudeste 0 -- -- 76
2019-05-28 01:00:00 20.1 2 Sur 4 Sur 0 -- -- 75
2019-05-28 00:00:00 20.2 2 Sudoeste 5 Sudoeste 0 -- -- 73
2019-05-27 23:00:00 20.6 4 Sur 7 Sur 0 -- -- 71
2019-05-27 22:00:00 21 4 Sur 12 Sudoeste 0 -- -- 68
2019-05-27 21:00:00 22 8 Sudoeste 13 Sur 0 -- -- 58
2019-05-27 20:00:00 22.8 8 Sur 15 Sur 0 -- -- 50
2019-05-27 19:00:00 22.3 9 Sur 17 Sur 0 -- -- 50
2019-05-27 18:00:00 22.8 10 Sur 17 Sur 0 -- -- 50
2019-05-27 17:00:00 23 13 Sudeste 19 Sudeste 0 -- -- 49
2019-05-27 16:00:00 24.6 12 Sudeste 19 Sudeste 0 -- -- 40
2019-05-27 15:00:00 21.8 10 Sudeste 18 Sur 0 -- -- 58
2019-05-27 14:00:00 20.6 12 Sudeste 17 Sudeste 0 -- -- 73
2019-05-27 13:00:00 20.4 10 Sur 15 Sur 0 -- -- 70
2019-05-27 12:00:00 21.1 8 Sudeste 12 Sudeste 0 -- -- 60
2019-05-27 11:00:00 21.9 6 Sudeste 11 Sur 0 -- -- 53
2019-05-27 10:00:00 22.5 4 Sudeste 8 Sudeste 0 -- -- 49
2019-05-27 09:00:00 19.4 7 Sur 10 Sur 0 -- -- 63
2019-05-27 08:00:00 19.5 0 Calma 12 Norte 0 -- -- 53
2019-05-27 07:00:00 17.7 7 Norte 11 Nordeste 0 -- -- 58
2019-05-27 06:00:00 17.6 0 Calma 6 Sudeste 0 -- -- 61
2019-05-27 05:00:00 18.4 2 Noroeste 10 Norte 0 -- -- 58
2019-05-27 04:00:00 18.7 4 Norte 11 Nordeste 0 -- -- 56
2019-05-27 03:00:00 18.4 7 Norte 14 Norte 0 -- -- 57
2019-05-27 02:00:00 18.3 4 Nordeste 12 Nordeste 0 -- -- 65
2019-05-27 01:00:00 18.7 5 Sudeste 9 Sudeste 0 -- -- 82
2019-05-27 00:00:00 18.8 5 Sudeste 9 Sudeste 0 -- -- 85
2019-05-26 23:00:00 19 3 Sudeste 9 Sudeste 0 -- -- 84
2019-05-26 22:00:00 19.3 5 Sudoeste 11 Sudeste 0 -- -- 82
2019-05-26 21:00:00 21.2 3 Sudeste 12 Sudeste 0 -- -- 70
2019-05-26 20:00:00 22.1 5 Sudeste 14 Sudeste 0 -- -- 67
2019-05-26 19:00:00 21.9 7 Sudeste 14 Sudeste 0 -- -- 67
2019-05-26 18:00:00 22.2 6 Sur 14 Sudoeste 0 -- -- 65
2019-05-26 17:00:00 21.8 9 Sur 15 Sur 0 -- -- 65
2019-05-26 16:00:00 21.4 9 Sur 15 Sur 0 -- -- 64
2019-05-26 15:00:00 20.3 10 Sur 17 Sur 0 -- -- 65
2019-05-26 14:00:00 20.8 9 Sur 15 Sur 0 -- -- 58
2019-05-26 13:00:00 21 9 Sur 13 Sur 0 -- -- 54
2019-05-26 12:00:00 21.5 7 Sur 14 Sudoeste 0 -- -- 47
2019-05-26 11:00:00 22.3 10 Sudoeste 14 Sur 0 -- -- 44
2019-05-26 10:00:00 21.4 5 Oeste 14 Oeste 0 -- -- 52
2019-05-26 09:00:00 20 4 Noroeste 18 Nordeste 0 -- -- 55
2019-05-26 08:00:00 17.2 10 Norte 19 Norte 0 -- -- 53
2019-05-26 07:00:00 16.7 12 Norte 19 Norte 0 -- -- 55
2019-05-26 06:00:00 17.1 5 Nordeste 17 Nordeste 0 -- -- 56
2019-05-26 05:00:00 17.3 9 Norte 15 Norte 0 -- -- 57
2019-05-26 04:00:00 17.5 5 Nordeste 17 Nordeste 0 -- -- 61
2019-05-26 03:00:00 17.7 10 Norte 17 Nordeste 0 -- -- 64
2019-05-26 02:00:00 18.2 8 Nordeste 14 Nordeste 0 -- -- 68
2019-05-26 01:00:00 18.7 2 Este 7 Sur 0 -- -- 71
2019-05-26 00:00:00 18.6 4 Sur 12 Sur 0 -- -- 78